createdAt,value
2023-03-11T12:28:23.914Z,13.11
2023-03-11T12:33:33.505Z,12.68
2023-03-11T12:38:41.426Z,12.61
2023-03-11T12:44:11.010Z,12.59
2023-03-11T12:49:25.356Z,12.62
2023-03-11T12:54:34.455Z,12.61
2023-03-11T13:00:08.086Z,12.62
2023-03-11T13:05:21.316Z,12.61
2023-03-11T13:10:40.017Z,12.63
2023-03-11T13:15:47.216Z,12.64
2023-03-11T13:20:59.678Z,12.64
2023-03-11T13:26:31.130Z,12.62
2023-03-11T13:31:44.008Z,12.62
2023-03-11T13:36:59.490Z,12.62
2023-03-11T13:42:16.071Z,12.61
2023-03-11T13:47:23.971Z,12.62
2023-03-11T13:52:34.092Z,12.60
2023-03-11T13:57:41.302Z,12.59
2023-03-11T14:02:54.803Z,12.60
2023-03-11T14:08:15.052Z,12.59
2023-03-11T14:13:22.700Z,12.61
2023-03-11T14:18:31.518Z,12.58
2023-03-11T14:23:42.540Z,12.58
2023-03-11T14:28:51.234Z,12.57
2023-03-11T14:34:04.845Z,12.56
2023-03-11T14:39:26.154Z,12.56
2023-03-11T14:44:35.070Z,12.56
2023-03-11T14:49:42.535Z,12.54
2023-03-11T14:54:50.753Z,12.53
2023-03-11T14:59:58.932Z,12.53
2023-03-11T15:05:11.383Z,12.52
2023-03-11T15:10:18.946Z,12.52
2023-03-11T15:15:28.118Z,12.53
2023-03-11T15:20:37.126Z,12.52
2023-03-11T15:25:50.930Z,12.52
2023-03-11T15:31:11.582Z,12.53
2023-03-11T15:36:35.389Z,12.54
2023-03-11T15:41:42.809Z,12.53
2023-03-11T15:46:50.083Z,12.52
2023-03-11T15:51:59.552Z,12.53
2023-03-11T15:57:07.688Z,12.52
2023-03-11T16:02:22.722Z,12.53
2023-03-11T16:07:39.604Z,12.54
2023-03-11T16:12:47.956Z,12.55
2023-03-11T16:17:56.181Z,12.53
2023-03-11T16:23:03.500Z,12.54
2023-03-11T16:28:13.222Z,12.54
2023-03-11T16:33:20.716Z,12.54
2023-03-11T16:38:28.166Z,12.54
2023-03-11T16:43:35.485Z,12.55
2023-03-11T16:48:42.908Z,12.54
2023-03-11T16:53:50.514Z,12.55
2023-03-11T16:58:57.865Z,12.55
2023-03-11T17:04:05.381Z,12.55
2023-03-11T17:09:12.798Z,12.55
2023-03-11T17:14:20.057Z,12.56
2023-03-11T17:19:27.290Z,12.56
2023-03-11T17:24:34.460Z,12.55
2023-03-11T17:29:41.876Z,12.56
2023-03-11T17:34:49.143Z,12.55
2023-03-11T17:39:56.598Z,12.56
2023-03-11T17:45:03.994Z,12.56
2023-03-11T17:50:12.480Z,12.56
2023-03-11T17:55:20.319Z,12.56
2023-03-11T18:00:27.914Z,12.56
2023-03-11T18:05:37.255Z,12.55
2023-03-11T18:10:50.912Z,12.55
2023-03-11T18:16:01.996Z,12.57
2023-03-11T18:21:10.452Z,12.56
2023-03-11T18:26:19.176Z,12.55
2023-03-11T18:31:27.346Z,12.55
2023-03-11T18:36:35.514Z,12.55
2023-03-11T18:41:43.188Z,12.55
2023-03-11T18:46:50.392Z,12.54
2023-03-11T18:51:57.532Z,12.53
2023-03-11T18:57:04.689Z,12.53
2023-03-11T19:02:12.682Z,12.53
2023-03-11T19:07:20.096Z,12.52
2023-03-11T19:12:30.047Z,12.51
2023-03-11T19:17:36.958Z,12.51
2023-03-11T19:22:44.229Z,12.50
2023-03-11T19:27:51.931Z,12.50
2023-03-11T19:32:59.749Z,12.48
2023-03-11T19:38:07.268Z,12.47
2023-03-11T19:43:15.274Z,12.47
2023-03-11T19:48:22.586Z,12.47
2023-03-11T19:53:30.280Z,12.46
2023-03-11T19:58:38.045Z,12.45
2023-03-11T20:03:45.629Z,12.43
2023-03-11T20:08:53.106Z,12.44
2023-03-11T20:14:00.360Z,12.43
2023-03-11T20:19:08.178Z,12.43
2023-03-11T20:24:15.345Z,12.41
2023-03-11T20:29:22.931Z,12.40
2023-03-11T20:34:30.404Z,12.39
2023-03-11T20:39:37.769Z,12.39
2023-03-11T20:44:45.154Z,12.38
2023-03-11T20:49:52.428Z,12.38
2023-03-11T20:55:00.096Z,12.37
2023-03-11T21:00:11.789Z,12.36
2023-03-11T21:05:19.691Z,12.35
2023-03-11T21:10:27.145Z,12.36
2023-03-11T21:15:34.715Z,12.34
2023-03-11T21:20:42.650Z,12.32
2023-03-11T21:25:50.131Z,12.32
2023-03-11T21:31:04.183Z,12.31
2023-03-11T21:36:12.233Z,12.28
2023-03-11T21:41:21.068Z,12.27
2023-03-11T21:46:29.420Z,12.28
2023-03-11T21:51:37.092Z,12.26
2023-03-11T21:56:44.441Z,12.25
2023-03-11T22:01:51.769Z,12.24
2023-03-11T22:06:59.260Z,12.21
2023-03-11T22:12:07.117Z,12.20
2023-03-11T22:17:14.461Z,12.21
2023-03-11T22:22:21.831Z,12.19
2023-03-11T22:27:29.042Z,12.18
2023-03-11T22:32:36.693Z,12.18
2023-03-11T22:37:44.715Z,12.16
2023-03-11T22:42:52.333Z,12.16
2023-03-11T22:47:59.702Z,12.14
2023-03-11T22:53:07.104Z,12.13
2023-03-11T22:58:14.739Z,12.09
2023-03-11T23:03:22.281Z,12.09
2023-03-11T23:08:29.466Z,12.06
2023-03-11T23:13:36.817Z,12.06
2023-03-11T23:18:44.741Z,12.07
2023-03-11T23:23:51.988Z,12.08
2023-03-11T23:28:59.231Z,12.07
2023-03-11T23:34:06.956Z,12.07
2023-03-11T23:39:14.221Z,12.08
2023-03-11T23:44:21.318Z,12.07
2023-03-11T23:49:28.661Z,12.06
2023-03-11T23:54:35.783Z,12.04
2023-03-11T23:59:42.939Z,12.03
